Time;durP1;ratioP1;P1;durP2;ratioP2;P2;SDS_P1;SDS_P2;PMS_P1;PMS_P2;Temp;Humidity;BMP_temperature;BMP_pressure;BME280_temperature;BME280_humidity;BME280_pressure;Samples;Min_cycle;Max_cycle;Signal;HPM_P1;HPM_P2
2022/01/08 00:00:34;;;;;;;21.30;19.15;;;4.50;49.80;;;;;;20348;6899;311285;-88
2022/01/08 00:02:59;;;;;;;4.40;4.00;;;4.70;49.30;;;;;;20548;6898;122690;-88
2022/01/08 00:05:26;;;;;;;2.10;1.97;;;4.10;50.10;;;;;;20551;6898;117904;-87
2022/01/08 00:07:51;;;;;;;2.13;2.03;;;4.10;50.10;;;;;;20322;6899;310393;-87
2022/01/08 00:10:18;;;;;;;2.03;1.93;;;4.40;49.90;;;;;;20346;6893;309781;-88
2022/01/08 00:12:43;;;;;;;2.03;1.92;;;4.40;49.80;;;;;;20372;6893;310194;-88
2022/01/08 00:15:09;;;;;;;2.67;2.07;;;4.60;49.30;;;;;;20576;6893;118635;-88
2022/01/08 00:17:34;;;;;;;2.07;1.97;;;4.50;49.50;;;;;;20371;6893;293504;-88
2022/01/08 00:20:00;;;;;;;2.13;2.03;;;4.50;49.70;;;;;;20561;6893;120149;-88
2022/01/08 00:22:25;;;;;;;1.90;1.80;;;4.40;49.90;;;;;;20585;6893;117701;-88
2022/01/08 00:24:52;;;;;;;2.00;1.90;;;4.10;50.40;;;;;;20378;6893;347554;-88
2022/01/08 00:27:16;;;;;;;1.70;1.60;;;4.20;50.50;;;;;;20364;6893;309713;-89
2022/01/08 00:29:42;;;;;;;1.93;1.67;;;4.50;50.10;;;;;;20563;6893;131487;-89
2022/01/08 00:32:08;;;;;;;1.85;1.75;;;4.50;50.10;;;;;;20368;6893;313957;-88
2022/01/08 00:34:33;;;;;;;1.90;1.80;;;4.60;49.90;;;;;;20357;6893;294252;-89
2022/01/08 00:36:59;;;;;;;2.03;1.93;;;4.90;49.30;;;;;;20579;6893;117767;-88
2022/01/08 00:39:24;;;;;;;2.03;1.53;;;4.80;49.40;;;;;;20580;6891;117477;-88
2022/01/08 00:41:50;;;;;;;2.07;1.87;;;4.60;49.90;;;;;;20357;6892;280842;-88
2022/01/08 00:44:18;;;;;;;1.70;1.60;;;4.70;50.00;;;;;;20372;6892;280574;-89
2022/01/08 00:46:41;;;;;;;1.67;1.60;;;4.90;49.50;;;;;;20572;6892;117400;-88
2022/01/08 00:49:06;;;;;;;1.80;1.70;;;4.90;49.60;;;;;;20580;6892;118540;-88
2022/01/08 00:51:32;;;;;;;1.75;1.65;;;4.70;50.00;;;;;;20368;6892;280567;-88
2022/01/08 00:53:58;;;;;;;2.77;2.57;;;4.80;49.90;;;;;;20564;6892;119326;-88
2022/01/08 00:56:23;;;;;;;2.03;1.90;;;4.70;49.90;;;;;;20377;6892;309372;-89
2022/01/08 00:58:49;;;;;;;1.73;1.63;;;4.90;49.70;;;;;;20592;6892;120826;-88
2022/01/08 01:01:15;;;;;;;1.90;1.80;;;4.70;50.10;;;;;;20588;6893;117892;-96
2022/01/08 01:03:41;;;;;;;2.20;2.00;;;4.70;50.10;;;;;;20357;6893;280486;-89
2022/01/08 01:06:08;;;;;;;1.80;1.60;;;4.80;50.00;;;;;;20411;6893;307990;-88
2022/01/08 01:08:33;;;;;;;1.40;1.40;;;5.10;49.60;;;;;;20682;6893;70208;-87
2022/01/08 01:10:59;;;;;;;1.60;1.50;;;5.10;49.60;;;;;;20647;6893;116760;-88
2022/01/08 01:13:24;;;;;;;1.83;1.73;;;4.90;50.00;;;;;;20593;6893;116466;-88
2022/01/08 01:15:50;;;;;;;1.60;1.50;;;4.70;50.50;;;;;;20367;6893;310462;-88
2022/01/08 01:18:16;;;;;;;1.73;1.60;;;5.20;49.60;;;;;;20344;6893;310369;-88
2022/01/08 01:20:42;;;;;;;1.80;1.70;;;5.10;49.40;;;;;;20352;6893;341947;-87
2022/01/08 01:23:11;;;;;;;2.08;1.70;;;5.40;48.80;;;;;;20589;6893;118019;-88
2022/01/08 01:25:39;;;;;;;1.60;1.50;;;5.40;49.00;;;;;;20373;6893;279531;-88
2022/01/08 01:28:22;;;;;;;2.40;1.90;;;5.40;48.60;;;;;;20540;6893;119255;-88
2022/01/08 01:49:14;;;;;;;1.40;1.30;;;5.60;48.50;;;;;;20585;6893;118238;-88
2022/01/08 01:51:41;;;;;;;1.15;1.15;;;5.20;49.10;;;;;;20570;6891;117837;-88
2022/01/08 01:54:06;;;;;;;2.00;1.60;;;5.20;49.10;;;;;;20378;6892;280127;-88
2022/01/08 01:56:32;;;;;;;1.90;1.80;;;5.30;49.40;;;;;;20374;6892;310224;-88
2022/01/08 01:58:57;;;;;;;1.70;1.60;;;5.50;48.90;;;;;;20367;6892;313791;-88
2022/01/08 02:01:23;;;;;;;1.97;1.87;;;5.70;48.50;;;;;;20579;6892;119810;-89
2022/01/08 02:03:49;;;;;;;2.07;1.90;;;5.60;49.60;;;;;;20349;6892;310876;-88
2022/01/08 02:06:15;;;;;;;1.80;1.70;;;5.50;49.50;;;;;;20352;6892;311081;-88
2022/01/08 02:08:41;;;;;;;1.92;1.83;;;5.70;48.60;;;;;;20358;6892;344477;-88
2022/01/08 02:11:07;;;;;;;1.50;1.40;;;5.90;48.50;;;;;;20556;6893;117430;-87
2022/01/08 02:13:32;;;;;;;1.83;1.50;;;5.70;48.50;;;;;;20566;6893;121936;-87
2022/01/08 02:16:00;;;;;;;1.58;1.48;;;5.40;49.10;;;;;;20338;6893;310440;-88
2022/01/08 02:18:25;;;;;;;1.87;1.77;;;5.40;49.50;;;;;;20358;6893;343481;-88
2022/01/08 02:20:49;;;;;;;2.00;1.80;;;5.70;49.40;;;;;;20354;6893;311490;-88
2022/01/08 02:23:15;;;;;;;2.30;2.10;;;5.90;49.00;;;;;;20579;6893;117859;-88
2022/01/08 02:25:40;;;;;;;2.20;2.10;;;5.70;49.10;;;;;;20556;6893;117633;-88
2022/01/08 02:28:07;;;;;;;2.30;2.10;;;5.20;50.10;;;;;;20576;6893;118092;-88
2022/01/08 02:30:33;;;;;;;2.60;2.47;;;5.20;50.50;;;;;;20360;6893;309795;-89
2022/01/08 02:32:59;;;;;;;2.30;2.20;;;5.50;51.10;;;;;;20365;6893;339516;-89
2022/01/08 02:35:25;;;;;;;2.30;2.20;;;5.50;50.40;;;;;;20374;6893;279734;-88
2022/01/08 02:37:50;;;;;;;2.55;2.40;;;5.80;50.10;;;;;;20348;6893;339880;-89
2022/01/08 02:40:18;;;;;;;2.42;2.22;;;6.00;49.70;;;;;;20574;6893;117842;-89
2022/01/08 02:42:51;;;;;;;2.20;2.00;;;5.80;49.70;;;;;;20573;6893;118940;-88
2022/01/08 02:45:10;;;;;;;2.30;2.00;;;5.50;50.20;;;;;;20345;6893;316492;-89
2022/01/08 02:47:35;;;;;;;1.80;1.70;;;5.50;50.30;;;;;;20373;6893;315221;-88
2022/01/08 02:50:01;;;;;;;2.30;1.60;;;5.80;50.00;;;;;;20537;6893;123766;-90
2022/01/08 02:52:27;;;;;;;1.80;1.50;;;5.70;50.00;;;;;;20356;6893;339500;-88
2022/01/08 02:54:52;;;;;;;1.50;1.40;;;5.70;49.60;;;;;;20575;6893;118200;-89
2022/01/08 02:57:19;;;;;;;1.93;1.30;;;5.60;49.70;;;;;;20577;6893;117426;-91
2022/01/08 02:59:45;;;;;;;1.43;1.10;;;5.40;50.10;;;;;;20551;6893;118733;-89
2022/01/08 03:02:10;;;;;;;2.20;1.27;;;5.20;50.60;;;;;;20370;6891;280040;-91
2022/01/08 03:04:36;;;;;;;1.60;1.50;;;5.30;50.40;;;;;;20619;6892;116347;-90
2022/01/08 03:07:02;;;;;;;1.85;1.20;;;5.30;50.40;;;;;;20652;6892;117869;-90
2022/01/08 03:09:28;;;;;;;1.70;1.17;;;5.20;50.80;;;;;;20650;6892;117136;-89
2022/01/08 03:11:53;;;;;;;1.87;0.90;;;5.00;51.10;;;;;;20637;6892;119113;-89
2022/01/08 03:14:19;;;;;;;1.13;1.13;;;4.80;51.70;;;;;;20596;6892;117560;-90
2022/01/08 03:16:45;;;;;;;1.80;1.20;;;4.80;51.70;;;;;;20367;6892;292985;-91
2022/01/08 03:19:11;;;;;;;1.00;1.00;;;5.00;52.00;;;;;;20576;6892;117779;-88
2022/01/08 03:21:41;;;;;;;1.00;0.83;;;5.10;51.90;;;;;;20579;6892;117408;-89
2022/01/08 03:24:07;;;;;;;1.37;1.00;;;5.00;52.00;;;;;;20569;6893;117635;-88
2022/01/08 03:26:30;;;;;;;1.23;0.97;;;4.90;52.30;;;;;;20571;6893;117655;-89
2022/01/08 03:28:56;;;;;;;1.40;1.30;;;4.80;52.50;;;;;;20372;6893;339397;-91
2022/01/08 03:31:22;;;;;;;1.23;1.20;;;5.00;52.80;;;;;;20583;6893;118578;-89
2022/01/08 03:33:47;;;;;;;1.50;1.20;;;5.10;52.60;;;;;;20362;6893;317856;-90
2022/01/08 03:36:14;;;;;;;1.43;0.90;;;5.30;52.60;;;;;;20419;6893;316219;-89
2022/01/08 03:38:41;;;;;;;0.90;0.90;;;5.60;51.90;;;;;;20411;6893;299044;-89
2022/01/08 03:41:08;;;;;;;0.83;0.83;;;5.90;51.20;;;;;;20435;6893;279104;-90
2022/01/08 03:43:34;;;;;;;1.43;1.00;;;6.20;51.30;;;;;;20405;6893;308299;-89
2022/01/08 03:46:02;;;;;;;0.90;0.90;;;6.30;50.00;;;;;;20378;6893;340360;-89
2022/01/08 03:48:44;;;;;;;0.90;0.90;;;6.50;49.70;;;;;;20607;6893;118077;-91
2022/01/08 03:50:57;;;;;;;0.80;0.80;;;6.30;49.90;;;;;;20383;6893;279578;-92
2022/01/08 03:53:23;;;;;;;1.00;1.00;;;6.20;50.10;;;;;;20420;6893;337690;-90
2022/01/08 03:55:50;;;;;;;0.90;0.90;;;6.30;50.00;;;;;;20413;6893;309711;-90
2022/01/08 03:58:15;;;;;;;0.90;0.90;;;6.50;49.80;;;;;;20411;6893;306220;-90
2022/01/08 04:00:41;;;;;;;0.90;0.90;;;6.60;49.50;;;;;;20633;6893;117231;-90
2022/01/08 04:03:07;;;;;;;0.77;0.77;;;6.10;50.40;;;;;;20602;6893;116704;-89
2022/01/08 04:05:33;;;;;;;0.70;0.70;;;6.00;50.30;;;;;;20579;6893;117955;-90
2022/01/08 04:07:58;;;;;;;0.70;0.70;;;5.80;50.90;;;;;;20354;6893;279544;-89
2022/01/08 04:10:24;;;;;;;0.63;0.60;;;5.80;50.90;;;;;;20578;6893;118418;-90
2022/01/08 04:12:54;;;;;;;0.73;0.73;;;5.80;50.90;;;;;;20372;6893;295648;-90
2022/01/08 04:17:50;;;;;;;0.70;0.70;;;5.80;50.70;;;;;;20350;6892;310842;-89
2022/01/08 04:20:15;;;;;;;0.70;0.70;;;5.90;50.40;;;;;;20574;6892;117595;-89
2022/01/08 04:22:44;;;;;;;0.93;0.82;;;5.70;50.90;;;;;;20573;6892;118403;-87
2022/01/08 04:25:07;;;;;;;0.60;0.60;;;5.60;50.80;;;;;;20571;6892;117382;-87
2022/01/08 04:27:33;;;;;;;0.50;0.50;;;5.50;51.40;;;;;;20584;6892;117546;-88
2022/01/08 04:29:59;;;;;;;0.68;0.60;;;5.30;51.80;;;;;;20572;6892;118339;-87
2022/01/08 04:32:24;;;;;;;0.63;0.63;;;5.20;52.10;;;;;;20381;6892;309214;-88
2022/01/08 04:34:50;;;;;;;0.93;0.60;;;5.40;52.10;;;;;;20568;6893;118632;-87
2022/01/08 04:37:15;;;;;;;0.60;0.60;;;5.40;52.00;;;;;;20375;6893;309706;-86
2022/01/08 04:39:41;;;;;;;0.60;0.60;;;5.60;51.60;;;;;;20568;6893;118792;-86
2022/01/08 04:42:06;;;;;;;0.53;0.53;;;5.60;51.50;;;;;;20368;6893;333119;-86
2022/01/08 04:44:37;;;;;;;0.50;0.50;;;5.80;51.40;;;;;;20373;6893;310063;-86
2022/01/08 04:47:04;;;;;;;0.43;0.43;;;6.00;50.90;;;;;;20568;6893;117518;-85
2022/01/08 04:49:31;;;;;;;0.40;0.40;;;6.00;50.90;;;;;;20576;6893;117877;-86
2022/01/08 04:51:57;;;;;;;0.57;0.57;;;5.80;51.40;;;;;;20347;6893;282208;-85
2022/01/08 04:54:22;;;;;;;0.50;0.50;;;5.80;52.30;;;;;;20365;6893;340647;-85
2022/01/08 04:56:48;;;;;;;0.90;0.60;;;6.00;52.30;;;;;;20370;6893;281651;-86
2022/01/08 04:59:14;;;;;;;1.10;0.63;;;6.20;52.20;;;;;;20567;6893;118566;-86
2022/01/08 05:01:40;;;;;;;0.60;0.60;;;6.10;52.10;;;;;;20572;6893;117659;-86
2022/01/08 05:04:06;;;;;;;0.53;0.53;;;5.80;52.60;;;;;;20372;6893;279826;-86
2022/01/08 05:06:32;;;;;;;0.50;0.50;;;5.80;53.40;;;;;;20385;6893;282716;-86
2022/01/08 05:08:57;;;;;;;0.60;0.60;;;6.00;53.50;;;;;;20586;6893;117530;-87
2022/01/08 05:11:23;;;;;;;0.50;0.47;;;5.90;53.20;;;;;;20581;6893;118692;-87
2022/01/08 05:13:50;;;;;;;0.97;0.80;;;5.60;53.50;;;;;;20347;6893;309251;-87
2022/01/08 05:16:14;;;;;;;0.50;0.50;;;5.60;54.40;;;;;;20359;6893;309649;-87
2022/01/08 05:18:41;;;;;;;0.40;0.40;;;5.80;54.20;;;;;;20576;6893;118702;-88
2022/01/08 05:23:43;;;;;;;0.68;0.68;;;5.50;54.50;;;;;;20367;6893;282912;-87
2022/01/08 05:26:10;;;;;;;0.50;0.50;;;5.40;55.00;;;;;;20602;6891;117840;-87
2022/01/08 05:28:36;;;;;;;0.70;0.70;;;5.40;55.00;;;;;;20596;6892;117460;-87
2022/01/08 05:31:02;;;;;;;0.53;0.53;;;5.00;55.60;;;;;;20591;6892;117822;-87
2022/01/08 05:33:28;;;;;;;1.07;0.80;;;5.00;55.80;;;;;;20377;6892;318350;-86
2022/01/08 05:35:53;;;;;;;0.60;0.60;;;5.20;56.50;;;;;;20562;6892;118337;-87
2022/01/08 05:38:19;;;;;;;0.68;0.68;;;5.20;56.20;;;;;;20588;6892;116735;-87
2022/01/08 05:40:44;;;;;;;0.63;0.63;;;5.00;56.30;;;;;;20584;6892;117577;-87
2022/01/08 05:43:10;;;;;;;0.57;0.50;;;4.90;56.70;;;;;;20368;6892;339787;-87
2022/01/08 05:45:37;;;;;;;0.70;0.70;;;5.00;57.20;;;;;;20367;6893;339064;-86
2022/01/08 05:48:02;;;;;;;0.30;0.30;;;5.40;57.00;;;;;;20364;6893;331728;-86
2022/01/08 05:50:28;;;;;;;0.50;0.50;;;5.70;56.20;;;;;;20365;6893;309366;-86
2022/01/08 05:52:54;;;;;;;0.63;0.60;;;5.90;55.60;;;;;;20373;6893;283314;-86
2022/01/08 05:55:19;;;;;;;0.43;0.43;;;6.10;55.20;;;;;;20582;6893;118081;-86
2022/01/08 05:57:45;;;;;;;0.30;0.30;;;5.90;55.00;;;;;;20565;6893;121579;-86
2022/01/08 06:00:10;;;;;;;0.50;0.50;;;5.60;55.50;;;;;;20376;6893;309699;-87
2022/01/08 06:02:36;;;;;;;0.40;0.40;;;5.60;56.10;;;;;;20380;6893;279595;-87
2022/01/08 06:05:02;;;;;;;0.40;0.40;;;5.80;55.90;;;;;;20570;6893;117427;-87
2022/01/08 06:07:28;;;;;;;0.30;0.30;;;5.70;55.50;;;;;;20362;6893;313369;-87
2022/01/08 06:09:54;;;;;;;0.30;0.30;;;5.70;56.10;;;;;;20551;6893;122491;-87
2022/01/08 06:12:19;;;;;;;0.27;0.27;;;5.50;55.90;;;;;;20578;6893;117962;-86
2022/01/08 06:14:45;;;;;;;0.27;0.27;;;5.30;56.30;;;;;;20573;6893;118462;-87
2022/01/08 06:17:11;;;;;;;0.50;0.50;;;4.80;57.30;;;;;;20582;6893;118960;-87
2022/01/08 06:19:37;;;;;;;0.70;0.30;;;4.80;57.20;;;;;;20355;6893;309711;-87
2022/01/08 06:22:03;;;;;;;0.30;0.30;;;5.00;58.00;;;;;;20255;6893;280050;-86
2022/01/08 06:24:28;;;;;;;0.30;0.30;;;5.30;57.70;;;;;;20581;6893;118043;-87
2022/01/08 06:26:54;;;;;;;0.40;0.40;;;5.20;57.10;;;;;;20587;6893;118099;-86
2022/01/08 06:29:19;;;;;;;0.30;0.30;;;5.00;57.20;;;;;;20582;6893;117764;-87
2022/01/08 06:31:45;;;;;;;0.40;0.40;;;4.80;57.50;;;;;;20549;6893;118267;-87
2022/01/08 06:34:10;;;;;;;0.47;0.47;;;4.70;57.90;;;;;;20368;6893;307680;-89
2022/01/08 06:36:36;;;;;;;0.70;0.57;;;4.80;58.10;;;;;;20586;6891;117588;-85
2022/01/08 06:39:02;;;;;;;0.37;0.37;;;4.80;57.50;;;;;;20576;6892;121178;-86
2022/01/08 06:41:29;;;;;;;0.30;0.30;;;4.60;57.60;;;;;;20574;6892;120945;-86
2022/01/08 06:43:55;;;;;;;0.70;0.60;;;4.60;57.90;;;;;;20348;6892;313694;-88
2022/01/08 06:46:22;;;;;;;0.63;0.63;;;4.60;57.90;;;;;;20561;6892;117432;-88
2022/01/08 06:48:48;;;;;;;0.70;0.70;;;4.60;57.40;;;;;;20575;6892;117717;-87
2022/01/08 06:51:15;;;;;;;0.70;0.60;;;4.40;57.50;;;;;;20374;6892;283826;-88
2022/01/08 06:53:41;;;;;;;0.60;0.60;;;4.50;56.80;;;;;;20559;6892;118053;-88
2022/01/08 06:56:07;;;;;;;0.60;0.60;;;4.50;56.80;;;;;;20369;6892;309546;-90
2022/01/08 06:58:33;;;;;;;0.70;0.70;;;4.70;56.20;;;;;;20365;6893;312205;-89
2022/01/08 07:01:00;;;;;;;0.93;0.80;;;5.20;54.20;;;;;;20367;6893;313707;-93
2022/01/08 07:03:25;;;;;;;0.93;0.93;;;5.20;54.20;;;;;;20581;6893;117563;-91
2022/01/08 07:05:51;;;;;;;0.70;0.70;;;4.90;54.80;;;;;;20562;6893;141476;-90
2022/01/08 07:08:17;;;;;;;0.97;0.90;;;4.80;54.60;;;;;;20583;6893;118143;-91
2022/01/08 07:10:43;;;;;;;0.90;0.90;;;4.70;55.30;;;;;;20383;6893;280268;-92
2022/01/08 07:13:08;;;;;;;0.70;0.70;;;4.70;55.00;;;;;;20640;6893;117845;-86
2022/01/08 07:15:34;;;;;;;1.00;0.97;;;4.70;54.90;;;;;;20677;6893;67728;-85
2022/01/08 07:17:59;;;;;;;0.90;0.90;;;4.60;55.20;;;;;;20565;6893;117420;-87
2022/01/08 07:20:25;;;;;;;1.30;0.80;;;4.40;55.60;;;;;;20440;6893;297991;-88
2022/01/08 07:22:50;;;;;;;0.73;0.70;;;4.60;55.40;;;;;;20359;6893;327816;-87
2022/01/08 07:25:16;;;;;;;1.30;0.90;;;4.90;54.30;;;;;;20361;6893;344364;-87
2022/01/08 07:27:41;;;;;;;1.50;0.90;;;5.10;53.40;;;;;;20561;6893;117636;-86
2022/01/08 07:30:07;;;;;;;1.02;0.95;;;5.10;53.40;;;;;;20584;6893;117582;-86
2022/01/08 07:32:33;;;;;;;2.63;0.80;;;4.80;53.90;;;;;;20563;6893;118211;-88
2022/01/08 07:34:58;;;;;;;0.90;0.90;;;4.60;54.50;;;;;;20555;6893;118505;-85
2022/01/08 07:37:24;;;;;;;0.93;0.93;;;4.40;55.00;;;;;;20386;6893;310136;-85
2022/01/08 07:39:51;;;;;;;1.10;1.10;;;4.50;54.80;;;;;;20581;6893;118396;-88
2022/01/08 07:42:16;;;;;;;1.07;1.07;;;4.50;54.60;;;;;;20373;6893;343885;-86
2022/01/08 07:44:42;;;;;;;1.37;1.20;;;4.70;54.20;;;;;;20574;6893;118339;-86
2022/01/08 07:47:07;;;;;;;1.70;1.60;;;4.70;54.10;;;;;;20363;6893;313254;-88
2022/01/08 07:49:35;;;;;;;1.80;1.57;;;4.80;54.00;;;;;;20580;6891;118331;-87
2022/01/08 07:52:00;;;;;;;1.90;1.30;;;4.80;54.00;;;;;;20352;6892;287969;-88
2022/01/08 07:54:26;;;;;;;1.52;1.25;;;4.90;53.70;;;;;;20582;6892;117627;-87
2022/01/08 07:56:51;;;;;;;1.27;1.27;;;4.80;53.50;;;;;;20571;6892;118403;-87
2022/01/08 07:59:17;;;;;;;2.30;1.50;;;4.60;54.00;;;;;;20582;6892;118913;-87
2022/01/08 08:01:42;;;;;;;1.40;1.30;;;4.40;54.40;;;;;;20349;6892;310589;-88
2022/01/08 08:04:08;;;;;;;1.40;1.30;;;4.50;54.30;;;;;;20370;6892;310134;-87
2022/01/08 08:06:36;;;;;;;1.75;1.37;;;4.80;53.30;;;;;;20585;6892;117912;-86
2022/01/08 08:08:59;;;;;;;1.30;1.30;;;4.70;53.10;;;;;;20559;6893;122220;-86
2022/01/08 08:11:25;;;;;;;1.40;1.40;;;4.50;53.50;;;;;;20365;6893;339837;-86
2022/01/08 08:13:50;;;;;;;1.20;1.20;;;4.60;53.60;;;;;;20354;6893;315700;-86
2022/01/08 08:16:16;;;;;;;1.37;1.27;;;4.90;53.30;;;;;;20367;6893;313478;-86
2022/01/08 08:18:41;;;;;;;1.50;1.40;;;5.10;52.50;;;;;;20370;6893;280526;-86
2022/01/08 08:21:07;;;;;;;1.10;1.10;;;5.30;52.30;;;;;;20354;6892;309790;-86
2022/01/08 08:23:32;;;;;;;1.20;1.20;;;5.50;52.00;;;;;;20585;6893;118916;-86
2022/01/08 08:25:58;;;;;;;1.33;1.23;;;5.30;52.00;;;;;;20351;6893;280078;-86
2022/01/08 08:28:24;;;;;;;0.70;0.70;;;5.30;52.40;;;;;;20586;6893;118175;-87
2022/01/08 08:30:49;;;;;;;1.20;1.20;;;5.10;52.50;;;;;;20375;6893;280870;-88
2022/01/08 08:33:15;;;;;;;1.30;1.20;;;5.10;52.80;;;;;;20368;6893;314401;-90
2022/01/08 08:35:40;;;;;;;1.10;1.10;;;5.30;52.80;;;;;;20563;6893;127542;-88
2022/01/08 08:38:06;;;;;;;2.17;1.40;;;5.10;52.80;;;;;;20362;6893;310025;-86
2022/01/08 08:40:31;;;;;;;1.00;1.00;;;5.10;53.20;;;;;;20585;6893;118585;-86
2022/01/08 08:42:58;;;;;;;1.50;1.40;;;4.70;53.80;;;;;;20580;6893;117114;-86
2022/01/08 08:45:24;;;;;;;3.10;1.60;;;4.70;53.80;;;;;;20382;6893;279877;-87
2022/01/08 08:47:50;;;;;;;1.80;1.70;;;4.80;54.20;;;;;;20354;6893;317773;-86
2022/01/08 08:50:16;;;;;;;1.93;1.47;;;5.30;55.00;;;;;;20372;6893;314648;-86
2022/01/08 08:52:42;;;;;;;1.60;1.60;;;5.30;54.20;;;;;;20567;6893;121850;-86
2022/01/08 08:55:07;;;;;;;1.80;1.70;;;5.20;54.10;;;;;;20371;6893;309346;-86
2022/01/08 08:57:33;;;;;;;1.62;1.52;;;5.20;54.30;;;;;;20574;6893;117462;-86
2022/01/08 08:59:59;;;;;;;1.53;1.50;;;5.20;54.40;;;;;;20340;6891;344320;-86
2022/01/08 09:02:24;;;;;;;1.35;1.33;;;5.20;54.60;;;;;;20579;6892;117335;-87
2022/01/08 09:04:50;;;;;;;1.83;1.73;;;5.20;54.50;;;;;;20363;6892;343875;-87
2022/01/08 09:07:17;;;;;;;1.97;1.50;;;5.30;54.40;;;;;;20575;6892;118164;-86
2022/01/08 09:09:43;;;;;;;1.60;1.50;;;5.30;54.30;;;;;;20344;6892;340187;-86
2022/01/08 09:12:09;;;;;;;1.60;1.50;;;5.30;54.00;;;;;;20580;6892;117556;-87
2022/01/08 09:14:34;;;;;;;2.20;1.65;;;5.30;54.00;;;;;;20361;6892;313794;-89
2022/01/08 09:17:03;;;;;;;1.50;1.50;;;5.50;54.30;;;;;;20349;6892;310136;-87
2022/01/08 09:19:27;;;;;;;1.10;1.10;;;5.80;53.40;;;;;;20587;6892;120239;-87
2022/01/08 09:21:52;;;;;;;1.20;1.20;;;5.80;53.20;;;;;;20566;6893;118551;-88
2022/01/08 09:24:21;;;;;;;1.63;1.40;;;5.60;53.20;;;;;;20590;6893;118361;-87
2022/01/08 09:26:47;;;;;;;1.77;1.67;;;5.30;53.40;;;;;;20374;6893;310594;-87
2022/01/08 09:29:12;;;;;;;1.90;1.70;;;5.30;52.50;;;;;;20407;6893;308649;-87
2022/01/08 09:31:38;;;;;;;1.80;1.70;;;5.60;51.80;;;;;;20408;6893;283748;-87
2022/01/08 09:34:03;;;;;;;1.97;1.87;;;5.70;50.90;;;;;;20645;6893;118872;-87
2022/01/08 09:36:29;;;;;;;2.10;1.70;;;5.70;51.30;;;;;;20394;6893;288789;-87
2022/01/08 09:38:54;;;;;;;1.73;1.62;;;5.70;50.70;;;;;;20376;6893;309800;-87
2022/01/08 09:41:21;;;;;;;1.70;1.60;;;5.80;50.40;;;;;;20588;6893;119424;-87
2022/01/08 09:43:46;;;;;;;2.40;1.90;;;5.80;50.40;;;;;;20568;6893;121543;-87
2022/01/08 09:46:15;;;;;;;2.40;1.60;;;5.50;51.00;;;;;;20583;6893;117642;-86
2022/01/08 09:48:37;;;;;;;1.77;1.42;;;5.30;51.70;;;;;;20580;6893;117473;-86
2022/01/08 09:51:03;;;;;;;6.20;4.30;;;5.20;52.90;;;;;;20371;6893;339864;-86
2022/01/08 09:53:30;;;;;;;6.47;5.95;;;5.30;51.90;;;;;;20588;6893;117369;-86
2022/01/08 09:55:56;;;;;;;2.90;2.70;;;5.40;51.90;;;;;;20566;6893;118700;-86
2022/01/08 09:58:22;;;;;;;2.80;2.00;;;5.10;52.50;;;;;;20573;6893;118168;-86
2022/01/08 10:00:47;;;;;;;1.90;1.80;;;5.10;52.50;;;;;;20576;6893;117951;-86
2022/01/08 10:03:23;;;;;;;2.78;1.90;;;5.10;52.80;;;;;;20570;6893;117529;-86
2022/01/08 10:05:54;;;;;;;2.20;2.00;;;5.00;52.90;;;;;;20553;6893;118647;-86
2022/01/08 10:08:23;;;;;;;4.07;2.80;;;4.90;53.00;;;;;;20358;6893;310188;-86
2022/01/08 10:10:58;;;;;;;1.80;1.70;;;5.10;52.10;;;;;;20370;6893;309930;-86
2022/01/08 10:13:24;;;;;;;1.87;1.50;;;5.50;50.60;;;;;;20570;6891;117438;-86
2022/01/08 10:18:36;;;;;;;4.90;1.83;;;5.40;51.10;;;;;;20581;6892;117657;-86
2022/01/08 10:21:18;;;;;;;3.73;2.40;;;5.20;51.70;;;;;;20574;6892;117404;-86
2022/01/08 10:23:44;;;;;;;3.30;3.10;;;5.20;52.10;;;;;;20504;6892;121989;-86
2022/01/08 10:26:09;;;;;;;2.10;1.90;;;5.10;52.30;;;;;;20361;6892;308107;-86
2022/01/08 10:28:51;;;;;;;2.00;1.83;;;5.30;51.70;;;;;;20569;6892;118529;-86
2022/01/08 10:31:27;;;;;;;2.00;1.60;;;5.40;51.50;;;;;;20569;6892;117763;-87
2022/01/08 10:34:03;;;;;;;2.03;1.53;;;5.30;51.70;;;;;;20557;6893;127288;-86
2022/01/08 10:36:30;;;;;;;7.33;6.67;;;5.20;51.90;;;;;;20353;6893;283324;-86
2022/01/08 10:38:55;;;;;;;2.87;2.60;;;5.40;50.20;;;;;;20551;6893;120281;-87
2022/01/08 10:41:21;;;;;;;2.00;1.80;;;5.40;50.20;;;;;;20376;6893;280691;-85
2022/01/08 10:43:46;;;;;;;1.75;1.52;;;5.60;49.10;;;;;;20556;6893;117653;-87
2022/01/08 10:46:13;;;;;;;4.30;2.37;;;5.50;49.10;;;;;;20577;6893;119437;-87
2022/01/08 10:48:39;;;;;;;1.83;1.73;;;5.30;49.50;;;;;;20555;6893;117810;-86
2022/01/08 10:51:17;;;;;;;2.50;2.30;;;5.20;50.10;;;;;;20567;6893;117544;-87
2022/01/08 10:53:50;;;;;;;3.53;3.20;;;5.10;50.50;;;;;;20552;6893;120828;-87
2022/01/08 10:56:22;;;;;;;2.62;1.77;;;4.90;50.70;;;;;;20355;6893;339482;-86
2022/01/08 10:58:52;;;;;;;3.07;1.30;;;5.10;48.60;;;;;;20356;6893;281423;-86
2022/01/08 11:01:13;;;;;;;2.23;1.50;;;5.50;47.10;;;;;;20349;6893;281008;-87
2022/01/08 11:03:41;;;;;;;3.10;1.40;;;5.90;46.40;;;;;;20252;6893;311798;-89
2022/01/08 11:06:07;;;;;;;3.45;2.05;;;6.20;46.00;;;;;;20362;6893;340976;-85
2022/01/08 11:08:33;;;;;;;3.60;3.30;;;6.40;45.20;;;;;;20338;6893;310841;-87
2022/01/08 11:10:58;;;;;;;3.60;1.77;;;6.60;44.80;;;;;;20567;6893;118929;-86
2022/01/08 11:13:25;;;;;;;2.30;2.10;;;6.60;45.50;;;;;;20362;6893;285211;-90
2022/01/08 11:15:51;;;;;;;4.93;2.10;;;6.70;45.60;;;;;;20547;6893;118484;-86
2022/01/08 11:18:15;;;;;;;2.78;1.90;;;6.70;46.30;;;;;;20355;6893;314305;-88
2022/01/08 11:20:40;;;;;;;3.33;2.47;;;6.70;44.70;;;;;;20562;6893;117961;-84
2022/01/08 11:23:06;;;;;;;3.10;1.70;;;6.60;45.00;;;;;;20565;6891;120059;-88
2022/01/08 11:25:35;;;;;;;2.45;1.55;;;6.30;45.70;;;;;;20373;6892;308862;-88
2022/01/08 11:28:05;;;;;;;2.90;1.80;;;6.30;44.50;;;;;;20345;6892;279841;-89
2022/01/08 11:30:29;;;;;;;2.50;1.40;;;6.50;44.00;;;;;;20352;6892;316189;-87
2022/01/08 11:33:27;;;;;;;1.20;1.10;;;6.50;44.30;;;;;;20554;6892;117211;-92
2022/01/08 11:35:49;;;;;;;2.17;1.33;;;6.50;44.40;;;;;;20531;6892;118212;-92
2022/01/08 11:38:16;;;;;;;2.70;1.70;;;6.20;45.40;;;;;;20356;6892;309809;-92
2022/01/08 11:40:44;;;;;;;2.07;1.33;;;6.50;45.40;;;;;;20358;6892;281152;-93
2022/01/08 11:43:09;;;;;;;1.93;1.13;;;6.50;45.40;;;;;;20380;6893;310601;-89
2022/01/08 11:45:43;;;;;;;2.90;1.20;;;6.80;45.00;;;;;;20587;6893;118547;-91
2022/01/08 11:48:06;;;;;;;1.70;1.08;;;6.80;45.10;;;;;;20366;6893;309755;-89
2022/01/08 11:50:32;;;;;;;1.13;0.90;;;6.80;44.10;;;;;;20568;6893;117390;-87
2022/01/08 11:53:11;;;;;;;2.00;1.33;;;6.80;44.60;;;;;;20363;6893;313444;-89
2022/01/08 11:55:36;;;;;;;1.50;1.10;;;6.80;44.40;;;;;;19534;6899;323783;-87
2022/01/08 11:58:08;;;;;;;2.95;1.20;;;7.10;44.00;;;;;;20310;6902;314328;-89
2022/01/08 12:00:50;;;;;;;2.83;1.60;;;7.20;43.70;;;;;;20363;6893;119199;-89
2022/01/08 12:03:22;;;;;;;1.57;1.30;;;7.10;44.10;;;;;;20575;6881;119045;-88
2022/01/08 12:05:49;;;;;;;1.17;1.07;;;6.80;44.80;;;;;;20540;6896;117905;-91
2022/01/08 12:08:19;;;;;;;1.23;1.07;;;6.60;45.70;;;;;;20354;6896;309931;-90
2022/01/08 12:10:58;;;;;;;2.10;1.15;;;6.70;45.60;;;;;;20358;6896;313549;-91
2022/01/08 12:13:43;;;;;;;1.13;0.93;;;7.00;44.60;;;;;;20511;6913;117810;-87
2022/01/08 12:16:08;;;;;;;1.20;0.93;;;6.90;44.80;;;;;;20516;6914;118213;-88
2022/01/08 12:18:35;;;;;;;1.20;1.10;;;6.60;45.90;;;;;;20219;6913;283344;-88
2022/01/08 12:21:01;;;;;;;3.40;1.53;;;6.50;44.90;;;;;;20447;6913;117604;-86
2022/01/08 12:23:27;;;;;;;2.85;1.20;;;6.50;44.90;;;;;;20308;6913;341043;-87
2022/01/08 12:25:52;;;;;;;1.63;1.10;;;6.50;44.60;;;;;;20286;6908;311211;-89
2022/01/08 12:28:41;;;;;;;1.30;1.20;;;6.60;44.30;;;;;;20363;6894;278906;-85
2022/01/08 12:31:28;;;;;;;2.03;1.37;;;6.70;44.10;;;;;;20348;6896;311562;-86
2022/01/08 12:34:28;;;;;;;2.20;2.00;;;6.80;43.80;;;;;;20330;6896;283635;-86
2022/01/08 12:36:54;;;;;;;2.00;1.40;;;6.90;43.90;;;;;;19685;6895;314857;-83
2022/01/08 12:39:50;;;;;;;1.33;1.20;;;7.00;43.80;;;;;;20363;6895;313773;-87
2022/01/08 12:42:22;;;;;;;1.50;1.37;;;7.00;43.00;;;;;;20370;6896;313531;-85
2022/01/08 12:45:22;;;;;;;1.43;1.20;;;7.00;43.40;;;;;;20360;6896;310838;-85
2022/01/08 12:48:00;;;;;;;1.40;1.30;;;7.00;43.40;;;;;;20330;6896;310253;-87
2022/01/08 12:50:37;;;;;;;1.90;1.80;;;7.00;43.40;;;;;;20343;6896;280523;-85
2022/01/08 12:53:09;;;;;;;1.70;1.27;;;7.10;43.10;;;;;;20565;6896;117493;-85
2022/01/08 12:55:56;;;;;;;1.52;1.37;;;6.80;43.70;;;;;;20316;6896;280914;-86
2022/01/08 12:58:19;;;;;;;1.83;1.20;;;6.80;43.90;;;;;;20517;6896;117955;-86
2022/01/08 13:01:05;;;;;;;2.40;2.17;;;6.60;44.40;;;;;;20357;6896;284339;-86
2022/01/08 13:03:38;;;;;;;2.25;2.05;;;6.90;43.90;;;;;;20354;6896;304043;-90
2022/01/08 13:06:03;;;;;;;1.90;1.37;;;6.90;43.90;;;;;;20577;6896;117539;-87
2022/01/08 13:08:29;;;;;;;1.50;1.40;;;6.90;44.30;;;;;;20574;6896;117329;-85
2022/01/08 13:11:00;;;;;;;1.70;1.33;;;6.60;44.00;;;;;;20338;6896;280312;-89
2022/01/08 13:13:21;;;;;;;1.67;1.52;;;6.60;43.80;;;;;;20303;6896;340317;-86